createdAt,value
2019-04-11T00:00:09.081Z,0.00
2019-04-11T00:01:10.028Z,0.00
2019-04-11T00:02:08.899Z,0.00
2019-04-11T00:03:09.199Z,0.00
2019-04-11T00:04:08.837Z,0.00
2019-04-11T00:05:08.841Z,0.00
2019-04-11T00:06:09.579Z,0.00
2019-04-11T00:07:08.858Z,0.00
2019-04-11T00:08:10.045Z,0.00
2019-04-11T00:09:08.811Z,0.00
2019-04-11T00:10:08.780Z,0.00
2019-04-11T00:11:09.442Z,0.00
2019-04-11T00:12:08.776Z,0.00
2019-04-11T00:13:17.265Z,0.00
2019-04-11T00:14:10.323Z,0.00
2019-04-11T00:15:08.731Z,0.00
2019-04-11T00:16:08.884Z,0.00
2019-04-11T00:17:09.650Z,0.00
2019-04-11T00:18:08.737Z,0.00
2019-04-11T00:19:09.421Z,0.00
2019-04-11T00:20:09.674Z,0.00
2019-04-11T00:21:08.793Z,0.00
2019-04-11T00:22:09.006Z,0.00
2019-04-11T00:23:08.678Z,0.00
2019-04-11T00:24:08.625Z,0.00
2019-04-11T00:25:09.473Z,0.00
2019-04-11T00:26:08.613Z,0.00
2019-04-11T00:27:08.758Z,0.00
2019-04-11T00:28:09.727Z,0.00
2019-04-11T00:29:08.593Z,0.00
2019-04-11T00:30:08.564Z,0.00
2019-04-11T00:31:08.564Z,0.00
2019-04-11T00:32:09.673Z,0.00
2019-04-11T00:33:09.729Z,0.00
2019-04-11T00:34:08.893Z,0.00
2019-04-11T00:35:09.224Z,0.00
2019-04-11T00:36:08.507Z,0.00
2019-04-11T00:37:08.658Z,0.00
2019-04-11T00:38:09.705Z,0.00
2019-04-11T00:39:08.499Z,0.00
2019-04-11T00:40:08.970Z,0.00
2019-04-11T00:41:08.450Z,0.00
2019-04-11T00:42:08.445Z,0.00
2019-04-11T00:43:09.471Z,0.00
2019-04-11T00:44:08.426Z,0.00
2019-04-11T00:45:09.508Z,0.00
2019-04-11T00:46:08.395Z,0.00
2019-04-11T00:47:08.928Z,0.00
2019-04-11T00:48:09.242Z,0.00
2019-04-11T00:49:08.385Z,0.00
2019-04-11T00:50:08.360Z,0.00
2019-04-11T00:51:08.334Z,0.00
2019-04-11T00:52:08.937Z,0.00
2019-04-11T00:53:08.348Z,0.00
2019-04-11T00:54:08.770Z,0.00
2019-04-11T00:55:08.305Z,0.00
2019-04-11T00:56:09.740Z,0.00
2019-04-11T00:57:08.516Z,0.00
2019-04-11T00:58:08.292Z,0.00
2019-04-11T00:59:08.253Z,0.00
2019-04-11T01:00:09.039Z,0.00
2019-04-11T01:01:09.163Z,0.00
2019-04-11T01:02:09.388Z,0.00
2019-04-11T01:03:08.203Z,0.00
2019-04-11T01:04:08.186Z,0.00
2019-04-11T01:05:08.184Z,0.00
2019-04-11T01:06:08.176Z,0.00
2019-04-11T01:07:08.910Z,0.00
2019-04-11T01:08:08.321Z,0.00
2019-04-11T01:09:08.282Z,0.00
2019-04-11T01:10:08.111Z,0.00
2019-04-11T01:11:08.118Z,0.00
2019-04-11T01:12:08.151Z,0.00
2019-04-11T01:13:09.145Z,0.00
2019-04-11T01:14:08.080Z,0.00
2019-04-11T01:15:08.129Z,0.00
2019-04-11T01:16:09.100Z,0.00
2019-04-11T01:17:09.322Z,0.00
2019-04-11T01:18:08.043Z,0.00
2019-04-11T01:19:08.762Z,0.00
2019-04-11T01:20:08.157Z,0.00
2019-04-11T01:21:08.252Z,0.00
2019-04-11T01:22:08.261Z,0.00
2019-04-11T01:23:08.952Z,0.00
2019-04-11T01:24:09.237Z,0.00
2019-04-11T01:25:08.428Z,0.00
2019-04-11T01:26:08.707Z,0.00
2019-04-11T01:27:07.956Z,0.00
2019-04-11T01:28:07.979Z,0.00
2019-04-11T01:29:07.918Z,0.00
2019-04-11T01:30:08.181Z,0.00
2019-04-11T01:31:07.907Z,0.00
2019-04-11T01:32:08.372Z,0.00
2019-04-11T01:33:07.890Z,0.00
2019-04-11T01:34:08.578Z,0.00
2019-04-11T01:35:08.863Z,0.00
2019-04-11T01:36:08.869Z,0.00
2019-04-11T01:37:07.815Z,0.00
2019-04-11T01:38:08.275Z,0.00
2019-04-11T01:39:08.489Z,0.00
2019-04-11T01:40:07.873Z,0.00
2019-04-11T01:41:07.785Z,0.00
2019-04-11T01:42:09.051Z,0.00
2019-04-11T01:43:08.110Z,0.00
2019-04-11T01:44:08.949Z,0.00
2019-04-11T01:45:07.735Z,0.00
2019-04-11T01:46:07.797Z,0.00
2019-04-11T01:47:08.727Z,0.00
2019-04-11T01:48:07.709Z,0.00
2019-04-11T01:49:08.099Z,0.00
2019-04-11T01:50:08.452Z,0.00
2019-04-11T01:51:09.608Z,0.00
2019-04-11T01:52:07.662Z,0.00
2019-04-11T01:53:08.852Z,0.00
2019-04-11T01:54:07.787Z,0.00
2019-04-11T01:55:08.262Z,0.00
2019-04-11T01:56:07.613Z,0.00
2019-04-11T01:57:07.636Z,0.00
2019-04-11T01:58:08.613Z,0.00
2019-04-11T01:59:07.559Z,0.00
2019-04-11T02:00:08.038Z,0.00
2019-04-11T02:01:08.349Z,0.00
2019-04-11T02:02:07.576Z,0.00
2019-04-11T02:03:08.763Z,0.00
2019-04-11T02:04:07.736Z,0.00
2019-04-11T02:05:08.352Z,0.00
2019-04-11T02:06:07.683Z,0.00
2019-04-11T02:07:07.515Z,0.00
2019-04-11T02:08:07.493Z,0.00
2019-04-11T02:09:08.073Z,0.00
2019-04-11T02:10:08.450Z,0.00
2019-04-11T02:11:08.197Z,0.00
2019-04-11T02:12:07.522Z,0.00
2019-04-11T02:13:07.876Z,0.00
2019-04-11T02:14:14.106Z,0.00
2019-04-11T02:15:08.410Z,0.00
2019-04-11T02:16:08.429Z,0.00
2019-04-11T02:17:08.470Z,0.00
2019-04-11T02:18:07.624Z,0.00
2019-04-11T02:19:07.934Z,0.00
2019-04-11T02:20:07.346Z,0.00
2019-04-11T02:21:07.334Z,0.00
2019-04-11T02:22:07.861Z,0.00
2019-04-11T02:23:07.310Z,0.00
2019-04-11T02:24:07.839Z,0.00
2019-04-11T02:25:08.111Z,0.00
2019-04-11T02:26:07.292Z,0.00
2019-04-11T02:27:08.501Z,0.00
2019-04-11T02:28:08.498Z,0.00
2019-04-11T02:29:07.266Z,0.00
2019-04-11T02:30:08.803Z,0.00
2019-04-11T02:31:09.672Z,0.00
2019-04-11T02:32:07.563Z,0.00
2019-04-11T02:33:09.402Z,0.00
2019-04-11T02:34:08.648Z,0.00
2019-04-11T02:35:08.505Z,0.00
2019-04-11T02:36:07.977Z,0.00
2019-04-11T02:37:07.227Z,0.00
2019-04-11T02:38:08.017Z,0.00
2019-04-11T02:39:12.142Z,0.00
2019-04-11T02:40:08.219Z,0.00
2019-04-11T02:41:08.574Z,0.00
2019-04-11T02:42:08.812Z,0.00
2019-04-11T02:43:09.078Z,0.00
2019-04-11T02:44:26.520Z,0.00
2019-04-11T02:45:22.409Z,0.00
2019-04-11T02:46:17.549Z,0.00
2019-04-11T02:47:13.701Z,0.00
2019-04-11T02:48:10.070Z,0.00
2019-04-11T02:49:08.122Z,0.00
2019-04-11T02:50:08.184Z,0.00
2019-04-11T02:51:07.628Z,0.00
2019-04-11T02:52:07.324Z,0.00
2019-04-11T02:53:07.302Z,0.00
2019-04-11T02:54:07.735Z,0.00
2019-04-11T02:55:09.702Z,0.00
2019-04-11T02:56:09.278Z,0.00
2019-04-11T02:57:07.940Z,0.00
2019-04-11T02:58:07.803Z,0.00
2019-04-11T02:59:06.946Z,0.00
2019-04-11T03:01:31.929Z,0.00
2019-04-11T03:02:24.378Z,0.00
2019-04-11T03:03:25.160Z,0.00
2019-04-11T03:04:24.359Z,0.00
2019-04-11T03:05:24.644Z,0.00
2019-04-11T03:06:23.601Z,0.00
2019-04-11T03:07:24.731Z,0.00
2019-04-11T03:08:24.702Z,0.00
2019-04-11T03:09:24.146Z,0.00
2019-04-11T03:10:24.860Z,0.00
2019-04-11T03:11:25.312Z,0.00
2019-04-11T03:12:24.154Z,0.00
2019-04-11T03:13:25.250Z,0.00
2019-04-11T03:14:23.490Z,0.00
2019-04-11T03:15:37.694Z,0.00
2019-04-11T03:16:35.309Z,0.00
2019-04-11T03:17:30.790Z,0.00
2019-04-11T03:18:40.334Z,0.00
2019-04-11T03:19:37.557Z,0.00
2019-04-11T03:20:33.711Z,0.00
2019-04-11T03:21:26.880Z,0.00
2019-04-11T03:22:24.737Z,0.00
2019-04-11T03:23:24.962Z,0.00
2019-04-11T03:24:24.470Z,0.00
2019-04-11T03:25:24.597Z,0.00
2019-04-11T03:26:24.931Z,0.00
2019-04-11T03:27:25.989Z,0.00
2019-04-11T03:28:27.516Z,0.00
2019-04-11T03:29:26.184Z,0.00
2019-04-11T03:30:34.921Z,0.00
2019-04-11T03:32:05.866Z,0.00
2019-04-11T03:33:18.311Z,0.00
2019-04-11T03:34:15.780Z,0.00
2019-04-11T03:35:12.320Z,0.00
2019-04-11T03:37:49.893Z,0.00
2019-04-11T03:38:46.900Z,0.00
2019-04-11T03:39:45.824Z,0.00
2019-04-11T03:40:43.842Z,0.00
2019-04-11T03:41:37.302Z,0.00
2019-04-11T03:42:39.759Z,0.00
2019-04-11T03:43:35.494Z,0.00
2019-04-11T03:44:31.444Z,0.00
2019-04-11T03:45:45.306Z,0.00
2019-04-11T03:46:37.711Z,0.00
2019-04-11T03:47:38.891Z,0.00
2019-04-11T03:48:39.814Z,0.00
2019-04-11T03:49:32.811Z,0.00
2019-04-11T03:50:28.006Z,0.00
2019-04-11T03:51:25.748Z,0.00
2019-04-11T03:52:23.764Z,0.00
2019-04-11T03:53:25.412Z,0.00
2019-04-11T03:54:23.203Z,0.00
2019-04-11T03:55:23.408Z,0.00
2019-04-11T03:56:24.412Z,0.00
2019-04-11T03:57:23.629Z,0.00
2019-04-11T03:58:23.831Z,0.00
2019-04-11T03:59:23.753Z,0.00
2019-04-11T04:00:24.751Z,0.00
2019-04-11T04:01:25.160Z,0.00
2019-04-11T04:02:24.559Z,0.00
2019-04-11T04:03:24.350Z,0.00
2019-04-11T04:04:23.859Z,0.00
2019-04-11T04:05:23.821Z,0.00
2019-04-11T04:06:23.409Z,0.00
2019-04-11T04:07:23.490Z,0.00
2019-04-11T04:08:24.596Z,0.00
2019-04-11T04:09:24.094Z,0.00
2019-04-11T04:10:23.615Z,0.00
2019-04-11T04:11:26.603Z,0.00
2019-04-11T04:12:22.896Z,0.00
2019-04-11T04:13:24.777Z,0.00
2019-04-11T04:14:24.279Z,0.00
2019-04-11T04:15:35.773Z,0.00
2019-04-11T04:16:31.073Z,0.00
2019-04-11T04:17:25.350Z,0.00
2019-04-11T04:18:23.908Z,0.00
2019-04-11T04:19:24.870Z,0.00
2019-04-11T04:20:24.552Z,0.00
2019-04-11T04:21:24.644Z,0.00
2019-04-11T04:22:24.546Z,0.00
2019-04-11T04:23:22.794Z,0.00
2019-04-11T04:24:22.894Z,0.00
2019-04-11T04:25:24.277Z,0.00
2019-04-11T04:26:22.883Z,0.00
2019-04-11T04:27:25.480Z,0.00
2019-04-11T04:28:23.722Z,0.00
2019-04-11T04:29:25.126Z,0.00
2019-04-11T04:30:24.525Z,0.00
2019-04-11T04:31:24.310Z,0.00
2019-04-11T04:32:23.687Z,0.00
2019-04-11T04:33:23.230Z,0.00
2019-04-11T04:34:23.898Z,0.00
2019-04-11T04:35:24.104Z,0.00
2019-04-11T04:36:24.592Z,0.00
2019-04-11T04:37:24.835Z,0.00
2019-04-11T04:38:23.557Z,0.00
2019-04-11T04:39:23.412Z,0.00
2019-04-11T04:40:38.893Z,0.00
2019-04-11T04:41:35.058Z,0.00
2019-04-11T04:42:31.160Z,0.00
2019-04-11T04:43:25.069Z,0.00
2019-04-11T04:44:24.189Z,0.00
2019-04-11T04:45:23.926Z,0.00
2019-04-11T04:46:34.782Z,0.00
2019-04-11T04:47:32.510Z,0.00
2019-04-11T04:48:26.725Z,0.00
2019-04-11T04:49:23.689Z,0.00
2019-04-11T04:50:24.129Z,0.00
2019-04-11T04:51:24.323Z,0.00
2019-04-11T04:52:22.470Z,5.62
2019-04-11T04:53:25.728Z,5.62
2019-04-11T04:54:24.056Z,5.62
2019-04-11T04:55:23.605Z,5.62
2019-04-11T04:56:26.446Z,5.62
2019-04-11T04:57:24.486Z,5.62
2019-04-11T04:58:24.334Z,5.62
2019-04-11T04:59:23.632Z,5.62
2019-04-11T05:00:23.416Z,5.62
2019-04-11T05:01:23.766Z,5.62
2019-04-11T05:02:24.091Z,5.62
2019-04-11T05:03:24.069Z,11.25
2019-04-11T05:04:23.494Z,11.25
2019-04-11T05:05:24.189Z,11.25
2019-04-11T05:06:23.979Z,11.25
2019-04-11T05:07:23.564Z,11.25
2019-04-11T05:08:22.846Z,11.25
2019-04-11T05:09:23.550Z,11.25
2019-04-11T05:10:22.319Z,11.25
2019-04-11T05:11:23.176Z,11.25
2019-04-11T05:12:22.620Z,11.25
2019-04-11T05:13:23.731Z,16.88
2019-04-11T05:14:23.340Z,16.88
2019-04-11T05:15:22.234Z,16.88
2019-04-11T05:16:22.228Z,16.88
2019-04-11T05:17:23.115Z,16.88
2019-04-11T05:18:22.209Z,16.88
2019-04-11T05:19:23.715Z,16.88
2019-04-11T05:20:22.178Z,16.88
2019-04-11T05:21:23.265Z,22.50
2019-04-11T05:22:22.465Z,22.50
2019-04-11T05:23:23.434Z,22.50
2019-04-11T05:24:22.905Z,22.50
2019-04-11T05:25:22.293Z,22.50
2019-04-11T05:26:22.166Z,22.50
2019-04-11T05:27:22.935Z,22.50
2019-04-11T05:28:22.075Z,22.50
2019-04-11T05:29:22.072Z,28.12
2019-04-11T05:30:23.132Z,28.12
2019-04-11T05:31:22.698Z,28.12
2019-04-11T05:32:22.052Z,28.12
2019-04-11T05:33:22.943Z,28.12
2019-04-11T05:34:22.027Z,28.12
2019-04-11T05:35:22.796Z,28.12
2019-04-11T05:36:22.740Z,28.12
2019-04-11T05:37:22.803Z,28.12
2019-04-11T05:38:22.989Z,28.12
2019-04-11T05:39:21.965Z,28.12
2019-04-11T05:40:21.978Z,33.75
2019-04-11T05:41:23.083Z,33.75
2019-04-11T05:42:25.244Z,33.75
2019-04-11T05:43:28.133Z,33.75
2019-04-11T05:44:23.131Z,33.75
2019-04-11T05:45:24.443Z,33.75
2019-04-11T05:46:31.134Z,33.75
2019-04-11T05:47:23.403Z,33.75
2019-04-11T05:48:24.039Z,33.75
2019-04-11T05:49:23.182Z,33.75
2019-04-11T05:50:22.188Z,33.75
2019-04-11T05:51:23.498Z,33.75
2019-04-11T05:52:21.891Z,39.38
2019-04-11T05:53:22.790Z,39.38
2019-04-11T05:54:21.797Z,39.38
2019-04-11T05:55:21.848Z,39.38
2019-04-11T05:56:21.850Z,39.38
2019-04-11T05:57:24.242Z,39.38
2019-04-11T05:58:22.781Z,39.38
2019-04-11T05:59:23.923Z,39.38
2019-04-11T06:00:21.760Z,39.38
2019-04-11T06:01:22.384Z,39.38
2019-04-11T06:02:21.731Z,39.38
2019-04-11T06:03:21.787Z,39.38
2019-04-11T06:04:24.117Z,39.38
2019-04-11T06:05:24.505Z,39.38
2019-04-11T06:06:22.754Z,45.00
2019-04-11T06:07:21.652Z,45.00
2019-04-11T06:08:26.948Z,45.00
2019-04-11T06:09:22.968Z,45.00
2019-04-11T06:10:21.920Z,45.00
2019-04-11T06:11:24.067Z,45.00
2019-04-11T06:12:21.659Z,45.00
2019-04-11T06:13:22.667Z,45.00
2019-04-11T06:14:22.839Z,45.00
2019-04-11T06:15:21.599Z,45.00
2019-04-11T06:16:21.540Z,45.00
2019-04-11T06:17:21.887Z,45.00
2019-04-11T06:18:26.985Z,45.00
2019-04-11T06:19:22.924Z,45.00
2019-04-11T06:20:22.059Z,45.00
2019-04-11T06:21:22.050Z,45.00
2019-04-11T06:22:21.557Z,45.00
2019-04-11T06:23:21.487Z,45.00
2019-04-11T06:24:21.472Z,45.00
2019-04-11T06:25:21.457Z,45.00
2019-04-11T06:26:22.906Z,45.00
2019-04-11T06:27:22.232Z,45.00
2019-04-11T06:28:22.199Z,45.00
2019-04-11T06:29:25.900Z,45.00
2019-04-11T06:30:22.427Z,45.00
2019-04-11T06:31:22.039Z,45.00
2019-04-11T06:32:21.617Z,45.00
2019-04-11T06:33:22.607Z,45.00
2019-04-11T06:34:24.916Z,45.00
2019-04-11T06:35:22.017Z,45.00
2019-04-11T06:36:21.340Z,45.00
2019-04-11T06:37:21.375Z,45.00
2019-04-11T06:38:21.319Z,45.00
2019-04-11T06:39:21.302Z,45.00
2019-04-11T06:40:21.324Z,45.00
2019-04-11T06:41:22.139Z,45.00
2019-04-11T06:42:24.105Z,50.62
2019-04-11T06:43:21.263Z,50.62
2019-04-11T06:44:21.628Z,50.62
2019-04-11T06:45:21.809Z,50.62
2019-04-11T06:46:21.259Z,50.62
2019-04-11T06:47:21.250Z,50.62
2019-04-11T06:48:23.327Z,50.62
2019-04-11T06:49:22.426Z,50.62
2019-04-11T06:50:21.180Z,50.62
2019-04-11T06:51:21.984Z,50.62
2019-04-11T06:52:21.163Z,50.62
2019-04-11T06:53:21.227Z,50.62
2019-04-11T06:54:21.209Z,50.62
2019-04-11T06:55:21.136Z,50.62
2019-04-11T06:56:21.135Z,50.62
2019-04-11T06:57:21.597Z,50.62
2019-04-11T06:58:21.495Z,50.62
2019-04-11T06:59:21.750Z,50.62
2019-04-11T07:00:23.083Z,50.62
2019-04-11T07:01:22.308Z,50.62
2019-04-11T07:02:23.286Z,50.62
2019-04-11T07:03:25.539Z,50.62
2019-04-11T07:04:22.050Z,50.62
2019-04-11T07:05:21.010Z,50.62
2019-04-11T07:06:21.725Z,50.62
2019-04-11T07:07:21.055Z,50.62
2019-04-11T07:08:22.263Z,50.62
2019-04-11T07:09:22.190Z,50.62
2019-04-11T07:10:22.209Z,50.62
2019-04-11T07:11:21.005Z,50.62
2019-04-11T07:12:22.091Z,50.62
2019-04-11T07:13:20.926Z,50.62
2019-04-11T07:14:20.934Z,50.62
2019-04-11T07:15:21.043Z,50.62
2019-04-11T07:16:21.918Z,50.62
2019-04-11T07:17:21.156Z,50.62
2019-04-11T07:18:20.900Z,50.62
2019-04-11T07:19:21.883Z,50.62
2019-04-11T07:20:20.900Z,50.62
2019-04-11T07:21:21.217Z,50.62
2019-04-11T07:22:20.978Z,50.62
2019-04-11T07:23:20.814Z,50.62
2019-04-11T07:24:20.802Z,50.62
2019-04-11T07:25:20.790Z,50.62
2019-04-11T07:26:20.927Z,50.62
2019-04-11T07:27:20.834Z,50.62
2019-04-11T07:28:20.841Z,50.62
2019-04-11T07:29:21.557Z,50.62
2019-04-11T07:30:22.808Z,50.62
2019-04-11T07:31:21.623Z,50.62
2019-04-11T07:32:22.151Z,50.62
2019-04-11T07:33:20.749Z,50.62
2019-04-11T07:34:21.295Z,50.62
2019-04-11T07:35:21.444Z,50.62
2019-04-11T07:36:21.078Z,50.62
2019-04-11T07:37:21.334Z,50.62
2019-04-11T07:38:21.011Z,50.62
2019-04-11T07:39:20.703Z,50.62
2019-04-11T07:40:21.844Z,50.62
2019-04-11T07:41:21.625Z,50.62
2019-04-11T07:42:21.296Z,50.62
2019-04-11T07:43:20.625Z,50.62
2019-04-11T07:44:21.714Z,50.62
2019-04-11T07:45:20.999Z,50.62
2019-04-11T07:46:20.623Z,50.62
2019-04-11T07:47:24.492Z,50.62
2019-04-11T07:48:21.590Z,50.62
2019-04-11T07:49:20.555Z,50.62
2019-04-11T07:50:21.345Z,50.62
2019-04-11T07:51:20.527Z,50.62
2019-04-11T07:52:20.563Z,50.62
2019-04-11T07:53:21.652Z,50.62
2019-04-11T07:54:20.583Z,50.62
2019-04-11T07:55:21.049Z,50.62
2019-04-11T07:56:20.851Z,56.25
2019-04-11T07:57:20.500Z,56.25
2019-04-11T07:58:21.534Z,56.25
2019-04-11T07:59:21.530Z,56.25
2019-04-11T08:00:33.227Z,56.25
2019-04-11T08:01:22.188Z,56.25
2019-04-11T08:02:22.371Z,56.25
2019-04-11T08:03:21.397Z,56.25
2019-04-11T08:04:21.578Z,56.25
2019-04-11T08:05:21.525Z,56.25
2019-04-11T08:06:20.369Z,56.25
2019-04-11T08:07:20.335Z,56.25
2019-04-11T08:08:21.453Z,56.25
2019-04-11T08:09:20.369Z,56.25
2019-04-11T08:10:20.607Z,56.25
2019-04-11T08:11:20.303Z,56.25
2019-04-11T08:12:21.340Z,56.25
2019-04-11T08:13:20.692Z,56.25
2019-04-11T08:14:20.337Z,56.25
2019-04-11T08:15:20.292Z,56.25
2019-04-11T08:16:20.427Z,56.25
2019-04-11T08:17:28.022Z,56.25
2019-04-11T08:18:21.236Z,56.25
2019-04-11T08:19:21.049Z,56.25
2019-04-11T08:20:21.315Z,56.25
2019-04-11T08:21:20.198Z,56.25
2019-04-11T08:22:21.010Z,56.25
2019-04-11T08:23:21.324Z,56.25
2019-04-11T08:24:20.507Z,56.25
2019-04-11T08:25:20.907Z,56.25
2019-04-11T08:26:20.126Z,56.25
2019-04-11T08:27:20.161Z,56.25
2019-04-11T08:28:20.590Z,56.25
2019-04-11T08:29:20.192Z,56.25
2019-04-11T08:30:20.111Z,50.62
2019-04-11T08:31:20.082Z,50.62
2019-04-11T08:32:20.118Z,50.62
2019-04-11T08:33:20.277Z,50.62
2019-04-11T08:34:20.790Z,50.62
2019-04-11T08:35:20.048Z,50.62
2019-04-11T08:36:20.080Z,50.62
2019-04-11T08:37:21.116Z,50.62
2019-04-11T08:38:20.369Z,50.62
2019-04-11T08:39:20.677Z,50.62
2019-04-11T08:40:19.994Z,50.62
2019-04-11T08:41:20.119Z,50.62
2019-04-11T08:42:21.220Z,50.62
2019-04-11T08:43:21.316Z,50.62
2019-04-11T08:44:19.991Z,50.62
2019-04-11T08:45:19.950Z,50.62
2019-04-11T08:46:20.639Z,50.62
2019-04-11T08:47:20.410Z,50.62
2019-04-11T08:48:21.198Z,50.62
2019-04-11T08:49:19.870Z,50.62
2019-04-11T08:50:20.638Z,50.62
2019-04-11T08:51:20.069Z,50.62
2019-04-11T08:52:20.932Z,50.62
2019-04-11T08:53:20.606Z,50.62
2019-04-11T08:54:19.841Z,50.62
2019-04-11T08:55:20.780Z,50.62
2019-04-11T08:56:20.862Z,50.62
2019-04-11T08:57:20.057Z,50.62
2019-04-11T08:58:20.502Z,50.62
2019-04-11T08:59:20.166Z,50.62
2019-04-11T09:00:19.947Z,50.62
2019-04-11T09:01:20.145Z,50.62
2019-04-11T09:02:20.576Z,50.62
2019-04-11T09:03:19.824Z,50.62
2019-04-11T09:04:19.709Z,50.62
2019-04-11T09:05:20.469Z,56.25
2019-04-11T09:06:20.828Z,56.25
2019-04-11T09:07:19.709Z,39.38
2019-04-11T09:08:20.367Z,50.62
2019-04-11T09:09:20.920Z,50.62
2019-04-11T09:10:20.044Z,50.62
2019-04-11T09:11:20.480Z,50.62
2019-04-11T09:12:22.537Z,50.62
2019-04-11T09:13:20.029Z,50.62
2019-04-11T09:14:22.574Z,50.62
2019-04-11T09:15:19.601Z,50.62
2019-04-11T09:16:19.585Z,50.62
2019-04-11T09:17:21.367Z,50.62
2019-04-11T09:18:19.703Z,50.62
2019-04-11T09:19:20.939Z,50.62
2019-04-11T09:20:19.587Z,45.00
2019-04-11T09:21:20.269Z,45.00
2019-04-11T09:22:20.523Z,50.62
2019-04-11T09:23:19.794Z,50.62
2019-04-11T09:24:19.527Z,50.62
2019-04-11T09:25:19.518Z,50.62
2019-04-11T09:26:20.186Z,50.62
2019-04-11T09:27:20.462Z,45.00
2019-04-11T09:28:19.749Z,45.00
2019-04-11T09:29:19.508Z,50.62
2019-04-11T09:30:19.503Z,56.25
2019-04-11T09:31:19.473Z,61.88
2019-04-11T09:32:20.156Z,61.88
2019-04-11T09:33:20.739Z,67.50
2019-04-11T09:34:19.674Z,67.50
2019-04-11T09:35:19.402Z,73.12
2019-04-11T09:36:19.758Z,73.12
2019-04-11T09:37:20.416Z,78.75
2019-04-11T09:38:19.387Z,67.50
2019-04-11T09:39:19.432Z,67.50
2019-04-11T09:40:19.554Z,61.88
2019-04-11T09:41:20.521Z,61.88
2019-04-11T09:42:21.389Z,67.50
2019-04-11T09:43:19.874Z,67.50
2019-04-11T09:44:20.303Z,78.75
2019-04-11T09:45:19.593Z,78.75
2019-04-11T09:46:19.281Z,78.75
2019-04-11T09:47:19.941Z,78.75
2019-04-11T09:48:19.874Z,67.50
2019-04-11T09:49:20.317Z,67.50
2019-04-11T09:50:20.307Z,67.50
2019-04-11T09:51:19.252Z,67.50
2019-04-11T09:52:19.241Z,67.50
2019-04-11T09:53:20.424Z,67.50
2019-04-11T09:54:19.779Z,67.50
2019-04-11T09:55:19.223Z,67.50
2019-04-11T09:56:19.185Z,73.12
2019-04-11T09:57:19.149Z,73.12
2019-04-11T09:58:19.634Z,73.12
2019-04-11T09:59:19.187Z,61.88
2019-04-11T10:00:19.156Z,61.88
2019-04-11T10:01:20.253Z,61.88
2019-04-11T10:02:19.186Z,56.25
2019-04-11T10:03:19.711Z,56.25
2019-04-11T10:04:19.103Z,50.62
2019-04-11T10:05:20.152Z,50.62
2019-04-11T10:06:19.467Z,50.62
2019-04-11T10:07:19.636Z,50.62
2019-04-11T10:08:19.086Z,50.62
2019-04-11T10:09:19.716Z,56.25
2019-04-11T10:10:19.118Z,61.88
2019-04-11T10:11:19.019Z,61.88
2019-04-11T10:12:20.026Z,67.50
2019-04-11T10:13:19.015Z,73.12
2019-04-11T10:14:19.726Z,73.12
2019-04-11T10:15:18.976Z,73.12
2019-04-11T10:16:19.930Z,73.12
2019-04-11T10:17:22.289Z,73.12
2019-04-11T10:18:25.242Z,73.12
2019-04-11T10:19:20.062Z,73.12
2019-04-11T10:20:20.258Z,73.12
2019-04-11T10:21:19.358Z,73.12
2019-04-11T10:22:18.891Z,67.50
2019-04-11T10:23:18.931Z,73.12
2019-04-11T10:24:20.782Z,67.50
2019-04-11T10:25:19.136Z,73.12
2019-04-11T10:26:20.149Z,73.12
2019-04-11T10:27:18.845Z,73.12
2019-04-11T10:28:19.543Z,73.12
2019-04-11T10:29:19.276Z,67.50
2019-04-11T10:30:19.492Z,67.50
2019-04-11T10:31:20.213Z,73.12
2019-04-11T10:32:19.162Z,73.12
2019-04-11T10:33:18.795Z,73.12
2019-04-11T10:34:19.632Z,73.12
2019-04-11T10:35:20.110Z,73.12
2019-04-11T10:36:19.001Z,78.75
2019-04-11T10:37:19.920Z,78.75
2019-04-11T10:38:18.692Z,78.75
2019-04-11T10:39:19.768Z,78.75
2019-04-11T10:40:21.169Z,78.75
2019-04-11T10:41:18.760Z,84.38
2019-04-11T10:42:18.673Z,84.38
2019-04-11T10:43:18.681Z,84.38
2019-04-11T10:44:18.636Z,90.00
2019-04-11T10:45:18.606Z,90.00
2019-04-11T10:46:19.605Z,84.38
2019-04-11T10:47:18.594Z,84.38
2019-04-11T10:48:18.613Z,84.38
2019-04-11T10:49:18.570Z,78.75
2019-04-11T10:50:19.580Z,78.75
2019-04-11T10:51:18.562Z,78.75
2019-04-11T10:52:18.567Z,78.75
2019-04-11T10:53:19.452Z,78.75
2019-04-11T10:54:19.660Z,78.75
2019-04-11T10:55:19.539Z,73.12
2019-04-11T10:56:18.492Z,73.12
2019-04-11T10:57:18.508Z,73.12
2019-04-11T10:58:18.530Z,73.12
2019-04-11T10:59:19.496Z,73.12
2019-04-11T11:00:18.905Z,73.12
2019-04-11T11:01:18.445Z,73.12
2019-04-11T11:02:18.433Z,67.50
2019-04-11T11:03:18.417Z,67.50
2019-04-11T11:04:18.411Z,67.50
2019-04-11T11:05:19.451Z,67.50
2019-04-11T11:06:18.412Z,67.50
2019-04-11T11:07:18.488Z,67.50
2019-04-11T11:08:19.409Z,67.50
2019-04-11T11:09:18.353Z,67.50
2019-04-11T11:10:19.475Z,61.88
2019-04-11T11:11:18.370Z,61.88
2019-04-11T11:12:19.059Z,61.88
2019-04-11T11:13:18.343Z,61.88
2019-04-11T11:14:18.789Z,56.25
2019-04-11T11:15:18.287Z,56.25
2019-04-11T11:16:18.274Z,56.25
2019-04-11T11:17:43.872Z,50.62
2019-04-11T11:18:54.166Z,50.62
2019-04-11T11:19:40.287Z,50.62
2019-04-11T11:20:26.051Z,50.62
2019-04-11T11:21:19.759Z,50.62
2019-04-11T11:22:18.871Z,50.62
2019-04-11T11:23:18.349Z,50.62
2019-04-11T11:24:18.192Z,50.62
2019-04-11T11:25:19.546Z,50.62
2019-04-11T11:26:22.556Z,50.62
2019-04-11T11:27:20.115Z,56.25
2019-04-11T11:28:18.151Z,56.25
2019-04-11T11:29:18.908Z,56.25
2019-04-11T11:30:18.792Z,61.88
2019-04-11T11:31:18.219Z,61.88
2019-04-11T11:32:18.963Z,61.88
2019-04-11T11:33:18.248Z,61.88
2019-04-11T11:34:20.294Z,61.88
2019-04-11T11:35:22.435Z,61.88
2019-04-11T11:36:19.413Z,61.88
2019-04-11T11:37:18.179Z,61.88
2019-04-11T11:38:18.021Z,61.88
2019-04-11T11:39:19.243Z,61.88
2019-04-11T11:40:18.879Z,61.88
2019-04-11T11:41:18.455Z,61.88
2019-04-11T11:42:18.007Z,61.88
2019-04-11T11:43:19.027Z,61.88
2019-04-11T11:44:19.235Z,61.88
2019-04-11T11:45:17.962Z,61.88
2019-04-11T11:46:19.364Z,61.88
2019-04-11T11:47:17.968Z,61.88
2019-04-11T11:48:20.682Z,61.88
2019-04-11T11:49:36.326Z,61.88
2019-04-11T11:50:21.779Z,67.50
2019-04-11T11:51:22.682Z,67.50
2019-04-11T11:52:19.324Z,67.50
2019-04-11T11:53:18.496Z,67.50
2019-04-11T11:54:17.869Z,73.12
2019-04-11T11:55:20.063Z,73.12
2019-04-11T11:56:17.896Z,78.75
2019-04-11T11:57:18.297Z,78.75
2019-04-11T11:58:18.758Z,78.75
2019-04-11T11:59:18.260Z,78.75
2019-04-11T12:00:17.794Z,78.75
2019-04-11T12:01:17.830Z,78.75
2019-04-11T12:02:19.789Z,78.75
2019-04-11T12:03:17.762Z,78.75
2019-04-11T12:04:18.884Z,78.75
2019-04-11T12:05:18.516Z,78.75
2019-04-11T12:06:22.282Z,78.75
2019-04-11T12:07:18.982Z,73.12
2019-04-11T12:08:18.198Z,73.12
2019-04-11T12:09:18.361Z,73.12
2019-04-11T12:10:17.664Z,73.12
2019-04-11T12:11:17.871Z,67.50
2019-04-11T12:12:17.734Z,67.50
2019-04-11T12:13:17.662Z,61.88
2019-04-11T12:14:18.076Z,61.88
2019-04-11T12:15:20.581Z,56.25
2019-04-11T12:16:21.363Z,56.25
2019-04-11T12:17:18.607Z,56.25
2019-04-11T12:18:19.752Z,56.25
2019-04-11T12:19:20.353Z,56.25
2019-04-11T12:20:18.579Z,61.88
2019-04-11T12:21:21.817Z,61.88
2019-04-11T12:22:18.543Z,61.88
2019-04-11T12:23:17.614Z,67.50
2019-04-11T12:24:17.667Z,67.50
2019-04-11T12:25:17.555Z,67.50
2019-04-11T12:26:18.428Z,73.12
2019-04-11T12:27:18.421Z,73.12
2019-04-11T12:28:17.558Z,78.75
2019-04-11T12:29:18.569Z,78.75
2019-04-11T12:30:20.864Z,78.75
2019-04-11T12:31:19.509Z,78.75
2019-04-11T12:32:17.447Z,78.75
2019-04-11T12:33:17.432Z,78.75
2019-04-11T12:34:18.545Z,78.75
2019-04-11T12:35:17.424Z,73.12
2019-04-11T12:36:18.520Z,73.12
2019-04-11T12:37:19.497Z,67.50
2019-04-11T12:38:17.435Z,67.50
2019-04-11T12:39:17.397Z,67.50
2019-04-11T12:40:17.400Z,67.50
2019-04-11T12:41:19.968Z,67.50
2019-04-11T12:42:17.335Z,73.12
2019-04-11T12:43:17.354Z,73.12
2019-04-11T12:44:17.337Z,73.12
2019-04-11T12:45:17.358Z,73.12
2019-04-11T12:46:17.320Z,78.75
2019-04-11T12:47:17.341Z,78.75
2019-04-11T12:48:17.510Z,78.75
2019-04-11T12:49:17.271Z,78.75
2019-04-11T12:50:17.274Z,78.75
2019-04-11T12:51:17.230Z,78.75
2019-04-11T12:52:17.235Z,78.75
2019-04-11T12:53:17.244Z,78.75
2019-04-11T12:54:17.319Z,73.12
2019-04-11T12:55:17.331Z,73.12
2019-04-11T12:56:17.204Z,73.12
2019-04-11T12:57:17.177Z,67.50
2019-04-11T12:58:17.227Z,67.50
2019-04-11T12:59:17.183Z,73.12
2019-04-11T13:00:17.121Z,73.12
2019-04-11T13:01:17.122Z,67.50
2019-04-11T13:02:17.138Z,67.50
2019-04-11T13:03:17.111Z,67.50
2019-04-11T13:04:17.104Z,67.50
2019-04-11T13:05:17.092Z,67.50